Time;durP1;ratioP1;P1;durP2;ratioP2;P2;SDS_P1;SDS_P2;PMS_P1;PMS_P2;Temp;Humidity;BMP_temperature;BMP_pressure;BME280_temperature;BME280_humidity;BME280_pressure;Samples;Min_cycle;Max_cycle;Signal;HPM_P1;HPM_P2
2022/01/12 00:02:06;;;;;;;2.77;1.20;;;;;;;1.74;71.00;99680.75;6217025;23;20150;-89
2022/01/12 00:04:32;;;;;;;2.87;1.20;;;;;;;1.90;71.34;99686.63;6216966;23;20511;-89
2022/01/12 00:06:57;;;;;;;2.93;2.37;;;;;;;1.77;71.10;99685.88;6216595;23;20188;-90
2022/01/12 00:09:23;;;;;;;3.93;1.73;;;;;;;1.70;71.91;99679.06;6216825;23;20188;-89
2022/01/12 00:11:49;;;;;;;5.50;3.37;;;;;;;1.84;71.53;99692.69;6216866;23;20152;-89
2022/01/12 00:14:14;;;;;;;4.50;1.87;;;;;;;1.80;71.65;99686.72;6216856;23;20153;-90
2022/01/12 00:16:42;;;;;;;1.00;0.93;;;;;;;1.76;71.07;99705.69;6216586;23;20146;-89
2022/01/12 00:19:08;;;;;;;4.67;1.27;;;;;;;1.63;71.70;99703.22;6216832;23;20304;-89
2022/01/12 00:21:33;;;;;;;5.83;1.93;;;;;;;1.55;71.86;99717.91;6216810;23;20192;-89
2022/01/12 00:23:59;;;;;;;1.07;0.87;;;;;;;1.30;71.44;99717.25;6216520;23;20324;-90
2022/01/12 00:34:31;;;;;;;1.83;1.37;;;;;;;1.40;71.97;99721.47;6174144;23;20397;-90
2022/01/12 00:36:57;;;;;;;3.83;2.30;;;;;;;1.46;71.45;99729.19;6190081;23;20397;-89
2022/01/12 00:39:22;;;;;;;1.67;1.20;;;;;;;1.50;71.33;99723.13;6190332;23;20411;-90
2022/01/12 00:41:48;;;;;;;1.17;0.90;;;;;;;1.46;71.19;99731.78;6190225;23;20169;-90
2022/01/12 00:44:31;;;;;;;1.73;1.10;;;;;;;1.44;70.50;99728.31;6216444;23;20177;-90
2022/01/12 00:46:58;;;;;;;2.27;1.53;;;;;;;1.34;71.07;99731.84;6216387;23;20379;-91
2022/01/12 00:49:23;;;;;;;1.67;1.23;;;;;;;1.39;71.12;99742.16;6189974;23;20451;-89
2022/01/12 00:51:54;;;;;;;1.67;1.27;;;;;;;1.31;70.94;99742.19;6216279;23;20835;-90
2022/01/12 00:54:19;;;;;;;2.53;1.80;;;;;;;1.39;71.31;99740.41;6217377;23;20142;-89
2022/01/12 00:56:45;;;;;;;1.27;1.00;;;;;;;1.12;71.87;99743.16;6190074;23;20391;-90
2022/01/12 00:59:10;;;;;;;2.10;1.17;;;;;;;1.00;72.40;99735.47;6190002;23;20556;-90
2022/01/12 01:01:36;;;;;;;2.20;1.33;;;;;;;1.26;72.10;99733.59;6216819;23;20160;-89
2022/01/12 01:04:02;;;;;;;1.43;1.17;;;;;;;1.15;72.32;99728.50;6216185;23;20154;-90
2022/01/12 01:06:28;;;;;;;1.27;1.17;;;;;;;1.16;72.42;99737.09;6190409;23;20237;-89
2022/01/12 01:08:53;;;;;;;2.03;1.30;;;;;;;1.37;72.08;99730.94;6189727;23;20516;-91
2022/01/12 01:11:20;;;;;;;2.57;1.10;;;;;;;1.28;71.22;99731.03;6216083;23;20150;-90
2022/01/12 01:14:00;;;;;;;4.90;1.90;;;;;;;1.22;71.78;99737.09;6190044;23;20456;-90
2022/01/12 01:16:46;;;;;;;4.50;2.67;;;;;;;0.98;71.81;99743.22;6189864;23;20384;-90
2022/01/12 01:27:47;;;;;;;4.80;1.60;;;;;;;1.29;71.40;99736.16;6125300;23;20365;-90
2022/01/12 01:30:13;;;;;;;1.37;1.27;;;;;;;1.35;70.83;99738.72;6177848;23;20383;-90
2022/01/12 01:32:38;;;;;;;1.50;1.03;;;;;;;1.49;70.76;99736.06;6190158;23;20575;-91
2022/01/12 01:35:04;;;;;;;2.10;1.47;;;;;;;1.60;70.77;99739.44;6216210;23;20168;-91
2022/01/12 01:37:30;;;;;;;0.63;0.63;;;;;;;1.50;70.23;99733.44;6216184;23;20236;-90
2022/01/12 01:39:55;;;;;;;3.30;1.70;;;;;;;1.47;70.21;99733.47;6215442;23;20231;-89
2022/01/12 01:42:29;;;;;;;3.83;1.93;;;;;;;1.21;70.66;99741.38;6189713;23;20157;-91
2022/01/12 01:55:40;;;;;;;1.03;0.90;;;;;;;0.92;70.74;99753.56;6216151;23;20468;-90
2022/01/12 01:58:06;;;;;;;2.13;1.80;;;;;;;0.90;71.13;99757.88;6189470;23;20390;-90
2022/01/12 02:00:33;;;;;;;1.37;1.10;;;;;;;1.00;70.93;99750.94;6215585;23;20401;-90
2022/01/12 02:03:00;;;;;;;1.43;1.33;;;;;;;0.98;70.37;99757.84;6216014;23;20151;-89
2022/01/12 02:05:26;;;;;;;2.53;1.50;;;;;;;1.22;70.38;99755.16;6216346;23;20378;-89
2022/01/12 02:07:52;;;;;;;4.13;2.10;;;;;;;1.14;70.21;99759.50;6215449;23;20822;-90
2022/01/12 02:10:18;;;;;;;3.77;1.07;;;;;;;1.18;70.47;99761.19;6215619;23;20386;-90
2022/01/12 02:12:43;;;;;;;2.37;1.47;;;;;;;1.17;69.46;99765.50;6215582;23;20159;-89
2022/01/12 02:15:22;;;;;;;2.20;1.20;;;;;;;1.26;69.93;99764.59;6215546;23;20152;-89
2022/01/12 02:37:08;;;;;;;2.40;1.00;;;;;;;1.56;69.50;99787.66;6215830;23;20362;-89
2022/01/12 02:42:12;;;;;;;2.53;1.60;;;;;;;1.51;68.87;99796.31;6215400;23;20828;-89
2022/01/12 02:55:34;;;;;;;4.10;1.40;;;;;;;1.44;69.30;99816.13;6218006;23;20359;-88
2022/01/12 02:58:00;;;;;;;1.50;1.23;;;;;;;1.44;68.40;99820.47;6217876;23;20458;-88
2022/01/12 03:00:36;;;;;;;3.73;1.97;;;;;;;1.54;68.63;99817.84;6217317;23;20512;-90
2022/01/12 03:03:02;;;;;;;3.60;1.47;;;;;;;1.56;68.52;99821.25;6190904;23;20147;-89
2022/01/12 03:05:45;;;;;;;1.93;1.33;;;;;;;1.68;68.08;99821.19;6218216;23;20379;-89
2022/01/12 03:08:14;;;;;;;3.30;1.43;;;;;;;1.67;67.97;99819.47;6217395;23;20482;-89
2022/01/12 03:10:39;;;;;;;2.87;1.73;;;;;;;1.54;69.14;99830.75;6191235;23;20785;-89
2022/01/12 03:13:05;;;;;;;5.30;1.97;;;;;;;1.36;68.25;99843.75;6217065;23;20371;-89
2022/01/12 03:15:38;;;;;;;2.23;0.73;;;;;;;1.36;69.20;99838.59;6217160;23;20565;-89
2022/01/12 03:18:04;;;;;;;2.63;1.20;;;;;;;1.36;68.77;99836.00;6217157;23;20136;-89
2022/01/12 03:20:29;;;;;;;4.53;2.03;;;;;;;1.30;69.12;99841.19;6216987;23;20398;-90
2022/01/12 03:22:55;;;;;;;4.57;2.00;;;;;;;1.42;68.97;99837.69;6217337;23;20512;-89
2022/01/12 03:25:20;;;;;;;7.53;3.30;;;;;;;1.37;68.76;99840.28;6216978;23;20532;-89
2022/01/12 03:27:46;;;;;;;2.17;1.37;;;;;;;1.38;68.63;99851.47;6216846;23;20232;-89
2022/01/12 03:30:12;;;;;;;4.33;2.43;;;;;;;1.29;68.90;99844.63;6217309;23;20474;-88
2022/01/12 03:32:46;;;;;;;3.40;1.73;;;;;;;1.18;68.97;99852.41;6217181;23;20148;-89
2022/01/12 04:08:21;;;;;;;0.80;0.80;;;;;;;0.88;70.54;99895.53;6217219;23;20474;-89
2022/01/12 04:10:51;;;;;;;3.67;1.63;;;;;;;0.83;69.65;99902.41;6217310;23;20399;-89
2022/01/12 04:13:17;;;;;;;7.03;2.47;;;;;;;0.93;69.46;99909.28;6216808;23;20385;-89
2022/01/12 04:15:45;;;;;;;4.03;2.10;;;;;;;0.96;69.33;99904.13;6190334;23;20461;-89
2022/01/12 04:18:10;;;;;;;2.77;1.63;;;;;;;1.13;68.82;99903.22;6216755;23;20382;-89
2022/01/12 04:20:43;;;;;;;5.47;2.93;;;;;;;1.05;68.76;99914.41;6216805;23;20400;-87
2022/01/12 04:23:18;;;;;;;2.13;1.83;;;;;;;0.83;68.47;99918.75;6216488;23;20136;-89
2022/01/12 04:25:56;;;;;;;5.60;1.77;;;;;;;1.01;68.52;99921.31;6216429;23;20426;-89
2022/01/12 04:28:24;;;;;;;4.27;1.27;;;;;;;0.86;68.65;99923.94;6216628;23;20449;-88
2022/01/12 04:30:51;;;;;;;9.77;3.07;;;;;;;0.84;69.38;99924.78;6190136;23;20391;-88
2022/01/12 04:33:18;;;;;;;3.93;1.83;;;;;;;0.75;69.36;99929.94;6216117;23;20695;-89
2022/01/12 04:35:52;;;;;;;2.97;1.50;;;;;;;0.87;69.20;99932.50;6216358;23;20356;-90
2022/01/12 04:38:27;;;;;;;2.67;1.67;;;;;;;0.94;68.68;99937.69;6216416;23;20440;-89
2022/01/12 04:40:53;;;;;;;3.87;1.40;;;;;;;1.10;68.67;99938.53;6216283;23;20843;-90
2022/01/12 04:43:21;;;;;;;4.10;1.43;;;;;;;1.20;67.40;99946.25;6190014;23;20470;-90
2022/01/12 04:50:43;;;;;;;3.90;2.47;;;;;;;1.01;68.24;99954.00;6216525;23;20380;-90
2022/01/12 04:53:10;;;;;;;2.93;1.73;;;;;;;0.91;68.30;99949.72;6216648;23;20409;-90
2022/01/12 04:55:36;;;;;;;3.53;1.30;;;;;;;0.90;67.26;99955.72;6216198;23;20375;-90
2022/01/12 04:58:02;;;;;;;1.77;1.17;;;;;;;0.89;67.18;99959.19;6216126;23;20404;-89
2022/01/12 05:00:30;;;;;;;1.73;0.93;;;;;;;0.93;67.43;99963.47;6216293;23;20211;-91
2022/01/12 05:13:41;;;;;;;3.87;1.70;;;;;;;0.99;67.77;99987.56;6216672;23;20370;-91
2022/01/12 05:16:10;;;;;;;4.23;1.60;;;;;;;1.16;67.30;99990.97;6189589;23;20392;-91
2022/01/12 05:18:36;;;;;;;4.50;1.37;;;;;;;1.22;66.90;99991.00;6190134;23;20376;-91
2022/01/12 05:21:03;;;;;;;3.27;2.07;;;;;;;1.19;67.13;99992.69;6190095;23;20447;-91
2022/01/12 05:23:28;;;;;;;2.13;1.60;;;;;;;1.25;66.92;99990.13;6189996;23;20536;-91
2022/01/12 05:25:54;;;;;;;1.67;1.57;;;;;;;1.32;66.79;99989.25;6216227;23;20386;-91
2022/01/12 05:28:21;;;;;;;1.87;1.37;;;;;;;1.36;66.90;99997.84;6216797;23;20180;-91
2022/01/12 05:30:49;;;;;;;3.33;1.57;;;;;;;1.33;66.61;100001.31;6165189;23;20187;-91
2022/01/12 05:33:15;;;;;;;1.70;0.87;;;;;;;1.40;66.53;100000.41;6215899;23;20406;-92
2022/01/12 05:35:42;;;;;;;6.07;1.87;;;;;;;1.41;66.37;100011.63;6189791;23;20387;-92
2022/01/12 05:38:09;;;;;;;3.40;1.73;;;;;;;1.45;66.67;100011.59;6190456;23;20148;-92
2022/01/12 05:40:35;;;;;;;0.60;0.60;;;;;;;1.45;66.40;100014.19;6216170;23;20414;-91
2022/01/12 05:43:01;;;;;;;4.07;1.47;;;;;;;1.54;66.18;100024.50;6190151;23;20396;-91
2022/01/12 05:45:29;;;;;;;8.10;2.57;;;;;;;1.65;66.14;100027.06;6216448;23;20384;-92
2022/01/12 05:50:21;;;;;;;6.37;1.80;;;;;;;1.73;65.15;100030.50;6216057;23;20223;-92
2022/01/12 05:52:48;;;;;;;2.17;1.80;;;;;;;1.69;65.25;100034.78;6216040;23;20152;-93
2022/01/12 05:55:14;;;;;;;7.47;3.20;;;;;;;1.66;65.48;100039.09;6190153;23;20195;-91
2022/01/12 05:57:40;;;;;;;7.53;3.80;;;;;;;1.71;65.26;100047.69;6216058;23;20179;-93
2022/01/12 06:00:08;;;;;;;4.27;1.83;;;;;;;1.67;65.40;100046.88;6216215;23;20141;-92
2022/01/12 06:02:34;;;;;;;8.47;4.70;;;;;;;1.69;65.12;100052.88;6190015;23;20262;-93
2022/01/12 06:05:00;;;;;;;4.90;3.07;;;;;;;1.67;64.99;100062.38;6189958;23;20419;-93
2022/01/12 06:07:26;;;;;;;5.97;3.60;;;;;;;1.72;64.57;100058.06;6190040;23;20191;-93
2022/01/12 06:09:51;;;;;;;3.53;2.50;;;;;;;1.72;64.91;100052.00;6189984;23;20185;-93
2022/01/12 06:12:17;;;;;;;5.53;3.27;;;;;;;1.69;64.72;100070.97;6189719;23;20235;-92
2022/01/12 06:14:42;;;;;;;5.00;3.00;;;;;;;1.64;64.85;100067.53;6189841;23;20153;-92
2022/01/12 06:17:09;;;;;;;6.53;3.27;;;;;;;1.48;65.15;100068.44;6189866;23;20161;-92
2022/01/12 06:19:35;;;;;;;5.53;2.77;;;;;;;1.52;65.26;100072.72;6189856;23;20599;-92
2022/01/12 06:22:00;;;;;;;5.90;3.23;;;;;;;1.55;65.24;100082.19;6190102;23;20381;-92
2022/01/12 06:24:26;;;;;;;1.57;1.27;;;;;;;1.59;65.56;100084.78;6189869;23;20151;-91
2022/01/12 06:26:52;;;;;;;5.47;1.17;;;;;;;1.48;65.68;100090.81;6217337;23;20153;-93
2022/01/12 06:31:46;;;;;;;3.67;1.93;;;;;;;1.56;64.79;100102.88;6217998;23;20463;-92
2022/01/12 06:34:12;;;;;;;7.50;2.40;;;;;;;1.60;65.30;100095.97;6191839;23;20199;-92
2022/01/12 06:36:37;;;;;;;4.17;2.87;;;;;;;1.64;64.59;100102.84;6191918;23;20391;-92
2022/01/12 06:39:07;;;;;;;3.77;2.80;;;;;;;1.51;65.11;100107.19;6191649;23;20179;-91
2022/01/12 06:41:36;;;;;;;2.67;1.70;;;;;;;1.55;65.54;100116.63;6192758;23;20183;-93
2022/01/12 06:44:02;;;;;;;1.60;1.43;;;;;;;1.44;66.03;100120.09;6191651;23;20383;-93
2022/01/12 06:46:30;;;;;;;3.47;2.40;;;;;;;1.47;65.83;100118.34;6191992;23;20387;-91
2022/01/12 06:48:55;;;;;;;4.53;2.30;;;;;;;1.58;65.65;100126.09;6191571;23;20183;-92
2022/01/12 06:51:24;;;;;;;10.20;2.83;;;;;;;1.64;65.04;100121.81;6191686;23;20386;-93
2022/01/12 06:53:50;;;;;;;3.60;1.83;;;;;;;1.62;65.24;100120.94;6218111;23;20459;-91
2022/01/12 06:56:17;;;;;;;5.37;2.37;;;;;;;1.50;65.44;100123.53;6191680;23;20445;-93
2022/01/12 06:58:56;;;;;;;3.07;1.97;;;;;;;1.35;65.97;100130.41;6193074;23;20160;-93
2022/01/12 07:01:21;;;;;;;4.47;2.57;;;;;;;1.43;66.70;100131.28;6191554;23;20382;-92
2022/01/12 07:03:48;;;;;;;8.00;2.00;;;;;;;1.53;66.53;100139.03;6191581;23;20384;-93
2022/01/12 07:06:14;;;;;;;8.83;3.17;;;;;;;1.57;65.81;100142.50;6191479;23;20239;-92
2022/01/12 07:08:40;;;;;;;2.77;1.30;;;;;;;1.67;65.30;100139.03;6191426;23;20456;-93
2022/01/12 07:11:15;;;;;;;;;;;;;;;;;;;;;
2022/01/12 07:13:41;;;;;;;9.67;2.53;;;;;;;1.41;65.41;100144.22;6218259;23;20215;-92
2022/01/12 07:16:19;;;;;;;;;;;;;;;;;;;;;
2022/01/12 07:18:45;;;;;;;1.43;1.33;;;;;;;1.20;65.26;100157.09;6218276;23;20219;-92
2022/01/12 07:21:11;;;;;;;7.60;1.97;;;;;;;1.45;65.61;100164.00;6191554;23;20378;-92
2022/01/12 07:23:38;;;;;;;3.90;1.23;;;;;;;1.54;65.69;100152.81;6191425;23;20161;-93
2022/01/12 07:26:17;;;;;;;;;;;;;;;;;;;;;
2022/01/12 07:28:43;;;;;;;3.80;1.93;;;;;;;1.39;64.54;100163.16;6217562;23;20490;-91
2022/01/12 07:31:12;;;;;;;5.73;2.40;;;;;;;1.51;64.98;100161.44;6192136;23;20392;-93
2022/01/12 07:33:37;;;;;;;3.10;2.23;;;;;;;1.64;64.29;100165.72;6191284;23;20411;-93
2022/01/12 07:36:03;;;;;;;5.53;2.57;;;;;;;1.31;64.35;100176.03;6192282;23;20450;-92
2022/01/12 07:38:28;;;;;;;2.87;1.70;;;;;;;1.38;64.77;100180.38;6216736;23;20214;-92
2022/01/12 07:40:54;;;;;;;4.77;1.40;;;;;;;1.53;64.21;100175.19;6191162;23;20153;-93
2022/01/12 07:43:19;;;;;;;2.77;1.57;;;;;;;1.28;64.96;100173.47;6191235;23;20157;-91
2022/01/12 07:45:48;;;;;;;3.40;2.03;;;;;;;1.21;65.02;100182.91;6191078;23;20156;-92
2022/01/12 07:48:13;;;;;;;2.27;2.00;;;;;;;1.46;64.94;100182.94;6191044;23;20190;-91
2022/01/12 07:50:40;;;;;;;6.17;2.07;;;;;;;1.45;63.90;100183.81;6192336;23;20411;-91
2022/01/12 07:53:08;;;;;;;3.30;1.30;;;;;;;1.47;64.18;100189.84;6217723;23;20148;-92
2022/01/12 07:55:34;;;;;;;1.97;1.50;;;;;;;1.51;63.80;100195.00;6190784;23;20487;-91
2022/01/12 07:57:59;;;;;;;2.77;1.37;;;;;;;1.53;63.10;100201.03;6190813;23;20451;-91
2022/01/12 08:00:27;;;;;;;9.37;1.77;;;;;;;1.50;63.94;100200.16;6190875;23;20161;-91
2022/01/12 08:02:54;;;;;;;1.73;1.37;;;;;;;1.70;63.70;100201.88;6191052;23;20156;-91
2022/01/12 08:05:20;;;;;;;5.80;2.97;;;;;;;1.48;63.75;100210.50;6190572;23;20379;-91
2022/01/12 08:07:47;;;;;;;3.53;2.60;;;;;;;1.48;64.05;100204.47;6190478;23;20859;-91
2022/01/12 08:10:14;;;;;;;2.20;1.57;;;;;;;1.66;64.33;100210.53;6190649;23;20392;-91
2022/01/12 08:12:41;;;;;;;4.03;1.17;;;;;;;1.93;63.45;100209.66;6216700;23;20954;-90
2022/01/12 08:15:09;;;;;;;2.93;1.87;;;;;;;1.84;62.43;100214.81;6216613;23;20434;-90
2022/01/12 08:17:36;;;;;;;12.87;2.40;;;;;;;1.69;63.04;100220.84;6216744;23;20558;-91
2022/01/12 08:20:03;;;;;;;2.67;2.07;;;;;;;1.82;62.64;100220.00;6216617;23;20828;-90
2022/01/12 08:22:29;;;;;;;4.13;2.27;;;;;;;1.89;63.12;100225.19;6190285;23;20396;-91
2022/01/12 08:24:55;;;;;;;3.70;1.87;;;;;;;1.91;63.14;100224.31;6190265;23;20803;-90
2022/01/12 08:27:21;;;;;;;3.60;2.17;;;;;;;1.95;62.65;100223.44;6216477;23;20614;-90
2022/01/12 08:29:46;;;;;;;2.83;2.47;;;;;;;1.93;62.63;100224.31;6216459;23;20184;-90
2022/01/12 08:32:12;;;;;;;5.37;1.43;;;;;;;2.00;63.23;100226.88;6216305;23;20223;-90
2022/01/12 08:34:37;;;;;;;4.40;2.00;;;;;;;2.22;63.55;100230.31;6216298;23;20169;-90
2022/01/12 08:37:04;;;;;;;4.20;1.67;;;;;;;2.44;63.46;100229.38;6190652;23;20157;-90
2022/01/12 08:39:29;;;;;;;2.20;1.30;;;;;;;2.43;62.96;100225.97;6216247;23;20236;-90
2022/01/12 08:41:55;;;;;;;5.37;3.13;;;;;;;2.54;62.39;100223.34;6190072;23;20234;-90
2022/01/12 08:44:20;;;;;;;1.93;1.43;;;;;;;2.63;62.07;100223.28;6216300;23;20150;-90
2022/01/12 08:46:46;;;;;;;4.40;1.60;;;;;;;2.86;63.14;100228.38;6191146;23;20154;-89
2022/01/12 08:49:11;;;;;;;4.43;2.27;;;;;;;3.02;62.23;100235.22;6216096;23;20593;-90
2022/01/12 08:51:37;;;;;;;4.20;2.57;;;;;;;3.13;61.72;100222.22;6190217;23;20213;-90
2022/01/12 08:54:03;;;;;;;3.77;2.07;;;;;;;3.42;61.24;100221.19;6216731;23;20145;-90
2022/01/12 08:56:29;;;;;;;2.87;1.77;;;;;;;3.58;59.79;100221.94;6216182;23;20153;-90
2022/01/12 08:58:54;;;;;;;4.43;2.23;;;;;;;3.69;59.75;100225.31;6189951;23;20585;-91
2022/01/12 09:01:20;;;;;;;2.57;1.67;;;;;;;3.51;59.03;100215.91;6216393;23;20557;-89
2022/01/12 09:03:46;;;;;;;6.17;2.83;;;;;;;3.50;59.83;100223.72;6216546;23;20561;-93
2022/01/12 09:06:11;;;;;;;2.13;1.27;;;;;;;3.20;59.45;100213.56;6216657;23;20150;-91
2022/01/12 09:08:38;;;;;;;3.87;1.80;;;;;;;3.57;60.77;100209.84;6216210;23;20478;-92
2022/01/12 09:11:05;;;;;;;2.47;1.90;;;;;;;4.08;60.84;100191.25;6216125;23;20177;-91
2022/01/12 09:13:30;;;;;;;8.63;3.17;;;;;;;3.96;58.35;100200.84;6189910;23;20149;-91
2022/01/12 09:15:56;;;;;;;4.10;1.70;;;;;;;4.14;59.77;100206.75;6216114;23;20508;-90
2022/01/12 09:18:22;;;;;;;9.10;3.67;;;;;;;4.45;56.03;100209.03;6216066;23;20168;-90
2022/01/12 09:20:49;;;;;;;8.27;3.33;;;;;;;4.53;57.17;100199.44;6191018;23;20153;-91
2022/01/12 09:23:15;;;;;;;6.13;2.87;;;;;;;4.65;57.37;100207.94;6190237;23;20221;-91
2022/01/12 09:25:46;;;;;;;4.73;2.17;;;;;;;4.38;57.99;100210.81;6216507;23;20152;-93
2022/01/12 09:28:28;;;;;;;2.27;1.57;;;;;;;4.47;56.81;100191.72;6190216;23;20173;-94
2022/01/12 09:30:54;;;;;;;4.97;2.60;;;;;;;4.60;56.80;100206.25;6190352;23;20143;-93
2022/01/12 09:33:20;;;;;;;2.47;1.50;;;;;;;4.16;57.20;100210.22;6190284;23;20176;-94
2022/01/12 09:36:03;;;;;;;4.97;2.37;;;;;;;4.33;58.48;100200.50;6190237;23;20142;-95
2022/01/12 09:38:29;;;;;;;3.37;2.50;;;;;;;4.50;57.35;100196.88;6190222;23;20173;-93
2022/01/12 09:41:02;;;;;;;1.60;0.97;;;;;;;4.22;54.67;100202.34;6190589;23;20500;-95
2022/01/12 09:43:59;;;;;;;2.77;1.67;;;;;;;3.85;54.70;100205.31;6191362;23;20153;-95
2022/01/12 09:46:26;;;;;;;2.77;1.57;;;;;;;3.74;56.02;100202.81;6188513;23;20233;-94
2022/01/12 09:48:53;;;;;;;1.73;1.40;;;;;;;3.72;55.85;100209.75;6190337;23;20186;-93
2022/01/12 09:51:18;;;;;;;1.17;1.03;;;;;;;3.59;56.07;100219.31;6190134;23;20245;-94
2022/01/12 09:53:44;;;;;;;2.50;1.03;;;;;;;3.38;55.66;100205.66;6190290;23;20150;-93
2022/01/12 09:56:18;;;;;;;4.10;1.23;;;;;;;3.32;56.93;100197.94;6190504;23;20154;-92
2022/01/12 09:58:45;;;;;;;2.43;1.00;;;;;;;3.23;56.24;100197.97;6189888;23;20152;-92
2022/01/12 10:01:11;;;;;;;2.10;1.23;;;;;;;3.25;57.17;100199.69;6190286;23;20478;-91
2022/01/12 10:04:18;;;;;;;2.37;1.37;;;;;;;3.05;57.79;100202.41;6216389;23;20224;-92
2022/01/12 10:06:58;;;;;;;;;;;;;;;;;;;;;
2022/01/12 10:09:32;;;;;;;1.97;1.03;;;;;;;3.71;57.39;100185.53;6216488;23;20574;-93
2022/01/12 10:12:07;;;;;;;3.60;1.13;;;;;;;3.65;56.55;100187.31;6190716;23;20211;-92
2022/01/12 10:14:42;;;;;;;1.80;1.23;;;;;;;3.55;57.27;100190.84;6190922;23;20546;-93
2022/01/12 10:17:09;;;;;;;1.43;0.93;;;;;;;3.44;56.46;100190.06;6190077;23;20591;-93
2022/01/12 10:19:38;;;;;;;3.80;1.57;;;;;;;3.61;56.68;100202.03;6190005;23;20145;-96
2022/01/12 10:22:10;;;;;;;3.63;2.03;;;;;;;3.47;55.26;100188.31;6190117;23;20569;-95
2022/01/12 10:24:40;;;;;;;1.73;0.90;;;;;;;3.37;57.11;100186.66;6191089;23;20150;-92
2022/01/12 10:27:20;;;;;;;1.70;1.30;;;;;;;3.28;56.07;100178.94;6192355;23;20150;-94
2022/01/12 10:29:56;;;;;;;3.60;0.90;;;;;;;3.30;58.01;100184.13;6190958;23;20264;-93
2022/01/12 10:32:22;;;;;;;2.00;0.87;;;;;;;3.39;57.35;100173.69;6189999;23;20204;-94
2022/01/12 10:34:49;;;;;;;2.13;1.40;;;;;;;3.45;57.80;100171.06;6190076;23;20181;-94
2022/01/12 10:37:17;;;;;;;3.70;1.53;;;;;;;3.52;56.03;100164.94;6192696;23;20154;-95
2022/01/12 10:39:49;;;;;;;1.10;1.00;;;;;;;3.09;56.37;100173.00;6192254;23;20146;-95
2022/01/12 10:42:18;;;;;;;0.87;0.80;;;;;;;3.07;55.75;100172.16;6216705;23;20146;-90
2022/01/12 10:44:49;;;;;;;4.93;1.90;;;;;;;2.75;56.61;100178.41;6190486;23;20158;-93
2022/01/12 10:47:24;;;;;;;4.47;2.00;;;;;;;2.52;56.82;100175.88;6193304;23;20161;-95
2022/01/12 10:49:53;;;;;;;1.93;1.00;;;;;;;2.12;58.26;100169.13;6218855;23;20260;-94
2022/01/12 10:52:20;;;;;;;2.80;1.87;;;;;;;2.23;58.25;100175.97;6192494;23;20281;-95
2022/01/12 10:54:47;;;;;;;4.87;1.53;;;;;;;2.76;59.58;100174.91;6191340;23;20153;-95
2022/01/12 10:57:46;;;;;;;1.87;1.33;;;;;;;3.01;57.92;100176.53;6190461;23;20460;-94
2022/01/12 11:00:19;;;;;;;3.50;1.37;;;;;;;3.05;57.18;100179.09;6185254;23;20150;-94
2022/01/12 11:02:59;;;;;;;2.50;1.13;;;;;;;3.14;56.11;100172.13;6190279;23;20149;-93
2022/01/12 11:05:28;;;;;;;5.73;1.47;;;;;;;3.12;55.68;100176.47;6190267;23;20524;-94
2022/01/12 11:07:54;;;;;;;1.37;0.87;;;;;;;3.04;55.12;100182.53;6191850;23;20157;-95
2022/01/12 11:10:26;;;;;;;1.33;1.00;;;;;;;2.87;55.59;100178.31;6192129;23;20172;-96
2022/01/12 11:12:52;;;;;;;6.50;1.50;;;;;;;2.87;56.90;100180.91;6192706;23;20551;-93
2022/01/12 11:15:25;;;;;;;1.20;1.00;;;;;;;3.12;56.91;100172.13;6195181;23;20150;-96
2022/01/12 11:17:52;;;;;;;2.97;1.37;;;;;;;3.14;55.68;100172.13;6226156;23;20142;-93
2022/01/12 11:30:33;;;;;;;1.27;1.00;;;;;;;3.14;56.90;100183.38;6049539;23;20276;-94
2022/01/12 11:55:24;;;;;;;1.73;1.03;;;;;;;3.24;54.22;100166.03;6097529;23;20179;-93
2022/01/12 12:09:18;;;;;;;1.37;1.13;;;;;;;2.80;54.67;100187.00;5899882;24;20311;-96
2022/01/12 12:12:23;;;;;;;1.43;1.10;;;;;;;2.79;55.39;100180.94;5904327;24;20186;-96
2022/01/12 12:15:29;;;;;;;3.13;1.00;;;;;;;2.74;54.14;100194.78;5907874;24;20161;-96
2022/01/12 13:02:31;;;;;;;2.40;1.57;;;;;;;2.83;53.38;100229.25;6010444;23;20177;-93
2022/01/12 13:05:09;;;;;;;1.73;1.13;;;;;;;2.82;51.01;100230.13;5978623;23;20168;-91
2022/01/12 13:07:37;;;;;;;3.17;1.13;;;;;;;2.93;51.71;100230.09;6125251;23;20158;-89
2022/01/12 13:10:05;;;;;;;1.17;0.87;;;;;;;2.85;52.18;100232.72;6125102;23;20192;-89
2022/01/12 13:12:39;;;;;;;0.83;0.50;;;;;;;2.94;51.63;100237.84;6151949;23;20653;-90
2022/01/12 13:15:10;;;;;;;2.17;1.57;;;;;;;2.87;52.36;100240.47;6219825;23;20182;-88
2022/01/12 13:17:39;;;;;;;2.07;1.17;;;;;;;2.76;51.56;100240.50;6246534;23;20138;-88
2022/01/12 13:22:51;;;;;;;1.20;0.93;;;;;;;2.31;52.69;100246.66;6245363;23;20203;-91
2022/01/12 13:25:18;;;;;;;5.07;2.10;;;;;;;2.42;52.55;100249.22;6219784;23;20483;-91
2022/01/12 13:27:47;;;;;;;6.40;1.83;;;;;;;2.76;52.43;100242.22;6247100;23;20157;-90
2022/01/12 13:30:29;;;;;;;3.27;1.93;;;;;;;2.58;51.49;100248.34;6219490;23;20181;-90
2022/01/12 13:32:57;;;;;;;3.30;1.97;;;;;;;2.08;52.48;100252.72;6219629;23;20179;-90
2022/01/12 13:35:32;;;;;;;2.57;1.23;;;;;;;2.04;53.02;100257.06;6245620;23;20475;-90
2022/01/12 13:38:00;;;;;;;1.10;0.80;;;;;;;1.90;53.26;100258.78;6246594;23;20232;-90
2022/01/12 13:40:37;;;;;;;2.07;1.50;;;;;;;1.82;52.61;100258.78;6246306;23;20283;-91
2022/01/12 13:43:03;;;;;;;3.17;0.67;;;;;;;1.39;53.11;100256.97;6246229;22;20247;-90
2022/01/12 13:45:38;;;;;;;1.00;0.77;;;;;;;1.46;54.35;100260.44;6219520;23;20156;-90
2022/01/12 13:48:12;;;;;;;1.27;0.77;;;;;;;1.31;52.77;100265.59;6246027;22;20136;-90
2022/01/12 13:50:40;;;;;;;2.07;1.10;;;;;;;1.46;54.46;100273.38;6246566;23;20361;-92
2022/01/12 13:53:06;;;;;;;0.63;0.63;;;;;;;1.38;54.00;100265.59;6219472;23;20782;-90
2022/01/12 13:55:32;;;;;;;2.20;1.03;;;;;;;1.29;54.67;100272.44;6219460;23;20412;-90
2022/01/12 13:58:05;;;;;;;4.67;1.20;;;;;;;1.26;54.20;100275.88;6245834;23;20173;-90
2022/01/12 14:00:32;;;;;;;2.83;1.00;;;;;;;1.33;54.86;100274.19;6245814;23;20400;-91
2022/01/12 14:02:58;;;;;;;1.03;0.93;;;;;;;1.29;54.57;100275.91;6219458;23;20152;-91
2022/01/12 14:05:38;;;;;;;1.63;0.73;;;;;;;1.32;54.44;100269.88;6219486;23;20485;-92
2022/01/12 14:08:11;;;;;;;1.67;1.00;;;;;;;1.29;54.73;100281.06;6246119;23;20129;-91
2022/01/12 14:10:36;;;;;;;2.67;1.17;;;;;;;1.27;54.82;100277.63;6246324;23;20140;-92
2022/01/12 14:13:02;;;;;;;3.27;1.00;;;;;;;1.32;54.78;100283.66;6245943;23;20382;-93
2022/01/12 14:15:30;;;;;;;3.53;1.83;;;;;;;1.31;55.20;100292.25;6219423;23;20686;-93
2022/01/12 14:17:58;;;;;;;0.53;0.53;;;;;;;1.20;54.61;100278.47;6245790;23;20155;-93
2022/01/12 14:20:34;;;;;;;2.83;1.47;;;;;;;0.90;55.38;100278.34;6219559;23;20379;-94
2022/01/12 14:23:04;;;;;;;1.73;1.27;;;;;;;0.83;56.43;100276.59;6219510;23;20412;-93
2022/01/12 14:25:40;;;;;;;1.53;1.10;;;;;;;0.79;57.32;100283.44;6219843;23;20436;-93
2022/01/12 14:28:11;;;;;;;1.93;1.10;;;;;;;1.08;55.44;100286.16;6219452;23;20708;-93
2022/01/12 14:30:38;;;;;;;6.90;1.73;;;;;;;0.98;55.98;100280.09;6220519;23;20488;-92
2022/01/12 14:33:05;;;;;;;3.13;1.87;;;;;;;0.80;56.89;100284.31;6220097;23;20376;-95
2022/01/12 14:35:31;;;;;;;0.87;0.70;;;;;;;0.58;57.89;100293.66;6219581;23;20836;-94
2022/01/12 14:37:57;;;;;;;1.83;0.93;;;;;;;0.81;58.05;100294.66;6219951;23;20388;-94
2022/01/12 14:40:24;;;;;;;2.33;1.37;;;;;;;1.06;56.63;100293.03;6219687;23;20151;-94
2022/01/12 14:42:53;;;;;;;3.53;1.60;;;;;;;1.07;56.77;100299.94;6220591;23;20387;-94
2022/01/12 14:45:26;;;;;;;0.57;0.57;;;;;;;1.03;56.30;100298.19;6220546;23;20380;-94
2022/01/12 14:47:53;;;;;;;3.60;1.30;;;;;;;1.09;55.90;100301.66;6221286;23;20365;-95
2022/01/12 14:50:19;;;;;;;7.70;2.07;;;;;;;1.26;55.38;100306.03;6221625;23;20900;-96
2022/01/12 14:52:45;;;;;;;4.40;1.37;;;;;;;1.10;55.72;100307.69;6223244;23;20375;-95
2022/01/12 14:55:11;;;;;;;4.83;1.10;;;;;;;1.00;56.03;100303.34;6221953;23;20383;-95
2022/01/12 14:57:37;;;;;;;1.13;0.97;;;;;;;1.04;56.24;100315.41;6222410;23;20178;-96
2022/01/12 15:00:15;;;;;;;2.00;1.17;;;;;;;0.83;55.99;100311.00;6223044;23;20455;-96
2022/01/12 15:02:41;;;;;;;2.87;1.57;;;;;;;0.94;56.07;100309.34;6222243;23;20375;-95
2022/01/12 15:05:06;;;;;;;2.10;1.00;;;;;;;0.98;55.91;100320.53;6222918;23;20852;-96
2022/01/12 15:07:32;;;;;;;1.10;0.97;;;;;;;0.99;55.77;100322.28;6222338;23;20162;-96
2022/01/12 15:09:58;;;;;;;4.33;1.53;;;;;;;1.10;55.11;100318.03;6222312;23;20188;-96
2022/01/12 15:12:32;;;;;;;0.87;0.70;;;;;;;0.95;56.07;100325.69;6222916;23;20159;-96
2022/01/12 15:14:59;;;;;;;5.93;1.70;;;;;;;1.06;55.34;100324.03;6222941;23;20143;-96